createdAt,value
2023-01-01T00:02:07.565Z,9.77
2023-01-01T00:04:40.572Z,9.32
2023-01-01T00:07:13.398Z,9.90
2023-01-01T00:10:03.602Z,9.65
2023-01-01T00:12:36.583Z,11.75
2023-01-01T00:15:10.971Z,10.35
2023-01-01T00:17:43.782Z,9.57
2023-01-01T00:20:17.043Z,10.13
2023-01-01T00:22:55.049Z,9.77
2023-01-01T00:25:28.586Z,9.10
2023-01-01T00:28:01.647Z,7.93
2023-01-01T00:30:35.843Z,7.47
2023-01-01T00:33:09.023Z,6.70
2023-01-01T00:35:42.783Z,7.35
2023-01-01T00:38:18.255Z,9.85
2023-01-01T00:40:51.200Z,7.13
2023-01-01T00:43:24.165Z,6.25
2023-01-01T00:45:58.564Z,6.35
2023-01-01T00:48:31.602Z,6.03
2023-01-01T00:51:05.487Z,5.80
2023-01-01T00:53:38.396Z,6.73
2023-01-01T00:56:11.364Z,5.90
2023-01-01T00:58:44.785Z,7.25
2023-01-01T01:01:35.557Z,6.80
2023-01-01T01:04:09.364Z,5.78
2023-01-01T01:06:42.230Z,7.90
2023-01-01T01:09:15.205Z,6.32
2023-01-01T01:11:48.067Z,5.05
2023-01-01T01:14:20.886Z,5.70
2023-01-01T01:16:55.112Z,5.55
2023-01-01T01:19:28.007Z,5.93
2023-01-01T01:22:00.803Z,5.00
2023-01-01T01:24:34.075Z,5.63
2023-01-01T01:27:07.004Z,4.22
2023-01-01T01:29:40.020Z,4.93
2023-01-01T01:32:14.576Z,4.97
2023-01-01T01:34:47.885Z,5.35
2023-01-01T01:37:20.677Z,4.88
2023-01-01T01:39:54.126Z,5.40
2023-01-01T01:42:27.399Z,5.38
2023-01-01T01:45:02.088Z,4.63
2023-01-01T01:47:40.415Z,5.32
2023-01-01T01:50:16.800Z,5.13
2023-01-01T01:53:00.923Z,4.43
2023-01-01T01:55:36.348Z,3.78
2023-01-01T01:58:12.820Z,3.30
2023-01-01T02:00:45.854Z,4.00
2023-01-01T02:03:23.671Z,3.22
2023-01-01T02:05:56.770Z,2.65
2023-01-01T02:08:30.499Z,3.75
2023-01-01T02:11:03.342Z,2.55
2023-01-01T02:13:36.389Z,2.65
2023-01-01T02:16:14.577Z,2.30
2023-01-01T02:18:55.101Z,2.50
2023-01-01T02:21:32.642Z,2.45
2023-01-01T02:24:23.693Z,2.65
2023-01-01T02:27:05.588Z,2.75
2023-01-01T02:29:45.267Z,2.13
2023-01-01T02:32:24.298Z,2.78
2023-01-01T02:35:21.951Z,3.40
2023-01-01T02:38:00.837Z,2.35
2023-01-01T02:40:36.805Z,2.83
2023-01-01T02:43:09.641Z,2.20
2023-01-01T02:45:44.021Z,2.58
2023-01-01T02:48:40.126Z,2.20
2023-01-01T02:51:23.907Z,1.83
2023-01-01T02:54:03.078Z,2.63
2023-01-01T02:56:43.027Z,1.67
2023-01-01T02:59:39.778Z,1.50
2023-01-01T03:02:26.245Z,2.42
2023-01-01T03:05:09.429Z,1.67
2023-01-01T03:07:52.720Z,1.70
2023-01-01T03:10:34.407Z,1.40
2023-01-01T03:13:16.530Z,2.78
2023-01-01T03:15:55.368Z,1.48
2023-01-01T03:18:35.579Z,1.95
2023-01-01T03:23:50.160Z,1.80
2023-01-01T03:26:28.740Z,1.73
2023-01-01T03:29:05.149Z,1.50
2023-01-01T03:31:44.983Z,1.50
2023-01-01T03:34:26.170Z,1.50
2023-01-01T03:37:04.065Z,1.73
2023-01-01T03:39:42.819Z,1.75
2023-01-01T03:42:22.993Z,1.50
2023-01-01T03:45:01.640Z,1.25
2023-01-01T03:47:34.696Z,1.85
2023-01-01T03:50:10.930Z,1.60
2023-01-01T03:52:53.023Z,1.55
2023-01-01T03:55:33.942Z,1.77
2023-01-01T03:58:13.072Z,1.30
2023-01-01T04:00:50.982Z,1.67
2023-01-01T04:03:26.350Z,1.70
2023-01-01T04:06:05.082Z,1.15
2023-01-01T04:08:39.283Z,1.33
2023-01-01T04:11:35.089Z,1.10
2023-01-01T04:14:08.239Z,1.45
2023-01-01T04:16:42.722Z,1.17
2023-01-01T04:19:15.544Z,2.05
2023-01-01T04:21:49.710Z,1.40
2023-01-01T04:24:23.339Z,1.83
2023-01-01T04:26:57.202Z,1.45
2023-01-01T04:29:30.063Z,1.60
2023-01-01T04:32:04.176Z,1.52
2023-01-01T04:34:37.131Z,1.67
2023-01-01T04:37:13.630Z,1.45
2023-01-01T04:39:48.121Z,1.00
2023-01-01T04:42:21.086Z,1.83
2023-01-01T04:44:53.873Z,1.50
2023-01-01T04:47:27.866Z,1.75
2023-01-01T04:50:00.723Z,1.67
2023-01-01T04:52:34.878Z,1.55
2023-01-01T04:55:08.362Z,1.58
2023-01-01T04:57:44.499Z,1.60
2023-01-01T05:00:17.695Z,2.08
2023-01-01T05:02:50.816Z,1.60
2023-01-01T05:05:23.874Z,1.73
2023-01-01T05:08:00.885Z,1.60
2023-01-01T05:10:33.881Z,2.20
2023-01-01T05:13:10.054Z,1.60
2023-01-01T05:15:42.837Z,1.45
2023-01-01T05:18:15.595Z,1.50
2023-01-01T05:20:48.532Z,1.60
2023-01-01T05:23:22.857Z,1.90
2023-01-01T05:25:55.655Z,1.70
2023-01-01T05:28:28.667Z,1.58
2023-01-01T05:31:06.838Z,1.45
2023-01-01T05:33:39.729Z,1.20
2023-01-01T05:36:16.665Z,1.10
2023-01-01T05:38:50.927Z,1.48
2023-01-01T05:41:24.754Z,1.65
2023-01-01T05:43:57.903Z,1.30
2023-01-01T05:46:30.747Z,1.70
2023-01-01T05:49:04.176Z,2.00
2023-01-01T05:56:43.979Z,1.67
2023-01-01T05:59:16.880Z,1.08
2023-01-01T06:01:49.872Z,1.77
2023-01-01T06:04:22.769Z,1.70
2023-01-01T06:06:55.641Z,2.22
2023-01-01T06:09:30.465Z,1.80
2023-01-01T06:12:03.487Z,1.60
2023-01-01T06:14:36.439Z,1.60
2023-01-01T06:17:09.599Z,1.83
2023-01-01T06:19:42.386Z,1.60
2023-01-01T06:22:15.589Z,1.70
2023-01-01T06:24:49.753Z,1.83
2023-01-01T06:27:22.559Z,1.27
2023-01-01T06:29:55.481Z,1.85
2023-01-01T06:32:28.309Z,1.40
2023-01-01T06:35:01.450Z,1.63
2023-01-01T06:37:34.227Z,1.52
2023-01-01T06:40:10.376Z,1.83
2023-01-01T06:42:44.364Z,2.28
2023-01-01T06:45:17.301Z,1.88
2023-01-01T06:47:50.203Z,1.70
2023-01-01T06:50:23.101Z,1.83
2023-01-01T06:52:55.889Z,1.80
2023-01-01T06:55:30.092Z,1.52
2023-01-01T06:58:02.902Z,2.20
2023-01-01T07:00:36.138Z,1.65
2023-01-01T07:03:11.116Z,1.85
2023-01-01T07:05:44.063Z,1.35
2023-01-01T07:08:16.880Z,1.50
2023-01-01T07:10:51.375Z,1.48
2023-01-01T07:13:24.586Z,1.70
2023-01-01T07:15:57.633Z,1.45
2023-01-01T07:18:30.513Z,1.77
2023-01-01T07:21:04.852Z,1.48
2023-01-01T07:23:37.853Z,1.48
2023-01-01T07:26:12.167Z,1.42
2023-01-01T07:28:45.182Z,2.25
2023-01-01T07:31:18.343Z,1.73
2023-01-01T07:33:51.563Z,1.58
2023-01-01T07:36:24.389Z,2.35
2023-01-01T07:38:57.314Z,1.33
2023-01-01T07:41:31.523Z,1.80
2023-01-01T07:44:05.285Z,1.77
2023-01-01T07:46:38.658Z,1.65
2023-01-01T07:49:11.664Z,1.73
2023-01-01T07:51:44.939Z,1.92
2023-01-01T07:54:17.747Z,1.83
2023-01-01T07:56:51.935Z,2.50
2023-01-01T07:59:25.134Z,1.85
2023-01-01T08:01:59.804Z,2.10
2023-01-01T08:07:05.723Z,2.33
2023-01-01T08:09:38.665Z,2.30
2023-01-01T08:12:12.838Z,1.52
2023-01-01T08:14:45.696Z,2.15
2023-01-01T08:17:18.490Z,2.42
2023-01-01T08:19:52.545Z,2.22
2023-01-01T08:22:25.510Z,2.30
2023-01-01T08:24:58.388Z,1.98
2023-01-01T08:27:32.608Z,1.90
2023-01-01T08:30:06.714Z,2.70
2023-01-01T08:32:40.134Z,2.97
2023-01-01T08:35:13.055Z,2.88
2023-01-01T08:37:45.900Z,1.83
2023-01-01T08:40:18.691Z,2.17
2023-01-01T08:42:52.907Z,1.90
2023-01-01T08:45:25.785Z,2.17
2023-01-01T08:47:58.739Z,2.65
2023-01-01T08:50:32.325Z,2.42
2023-01-01T08:53:05.321Z,2.30
2023-01-01T08:55:38.235Z,1.90
2023-01-01T08:58:12.414Z,3.75
2023-01-01T09:00:45.204Z,10.52
2023-01-01T09:03:18.246Z,4.90
2023-01-01T09:05:51.142Z,2.28
2023-01-01T09:08:24.261Z,2.53
2023-01-01T09:11:00.828Z,2.65
2023-01-01T09:13:35.187Z,2.80
2023-01-01T09:16:08.513Z,2.92
2023-01-01T09:18:41.314Z,3.72
2023-01-01T09:21:14.170Z,2.80
2023-01-01T09:23:46.953Z,3.03
2023-01-01T09:26:19.842Z,2.42
2023-01-01T09:28:54.325Z,3.25
2023-01-01T09:31:27.112Z,3.28
2023-01-01T09:33:59.970Z,3.45
2023-01-01T09:36:33.678Z,2.80
2023-01-01T09:39:06.890Z,2.35
2023-01-01T09:41:51.414Z,2.40
2023-01-01T09:44:45.345Z,2.70
2023-01-01T09:47:25.077Z,2.25
2023-01-01T09:50:02.540Z,2.58
2023-01-01T09:52:42.407Z,2.33
2023-01-01T09:55:22.303Z,2.10
2023-01-01T09:57:56.651Z,2.78
2023-01-01T10:00:34.664Z,2.25
2023-01-01T10:03:30.277Z,2.05
2023-01-01T10:09:01.504Z,2.17
2023-01-01T10:11:44.240Z,3.00
2023-01-01T10:14:23.289Z,2.22
2023-01-01T10:17:00.350Z,1.88
2023-01-01T10:19:38.486Z,2.60
2023-01-01T10:22:16.704Z,2.40
2023-01-01T10:24:53.594Z,2.92
2023-01-01T10:27:32.862Z,2.35
2023-01-01T10:30:15.146Z,2.58
2023-01-01T10:32:51.736Z,3.40
2023-01-01T10:35:31.179Z,3.05
2023-01-01T10:38:05.667Z,3.03
2023-01-01T10:40:38.538Z,3.75
2023-01-01T10:43:12.930Z,3.20
2023-01-01T10:45:49.517Z,3.05
2023-01-01T10:48:25.186Z,3.75
2023-01-01T10:50:59.883Z,3.58
2023-01-01T10:53:37.164Z,2.90
2023-01-01T10:56:13.307Z,2.67
2023-01-01T10:58:48.157Z,2.20
2023-01-01T11:03:59.603Z,3.15
2023-01-01T11:06:34.780Z,2.42
2023-01-01T11:09:20.807Z,2.00
2023-01-01T11:12:00.800Z,2.28
2023-01-01T11:14:44.020Z,2.53
2023-01-01T11:17:22.753Z,2.72
2023-01-01T11:20:02.302Z,2.67
2023-01-01T11:22:39.240Z,2.30
2023-01-01T11:25:21.585Z,2.92
2023-01-01T11:28:19.292Z,2.65
2023-01-01T11:31:02.072Z,1.85
2023-01-01T11:33:38.845Z,2.00
2023-01-01T11:36:14.735Z,2.22
2023-01-01T11:38:49.819Z,2.03
2023-01-01T11:41:23.084Z,2.90
2023-01-01T11:43:55.906Z,2.22
2023-01-01T11:46:34.346Z,1.75
2023-01-01T11:49:14.825Z,1.85
2023-01-01T11:51:49.400Z,1.52
2023-01-01T11:54:26.728Z,2.65
2023-01-01T11:57:08.193Z,2.45
2023-01-01T11:59:47.096Z,2.30
2023-01-01T12:02:32.033Z,2.55
2023-01-01T12:05:16.429Z,2.33
2023-01-01T12:07:52.970Z,2.30
2023-01-01T12:10:30.025Z,2.35
2023-01-01T12:13:07.574Z,2.35
2023-01-01T12:15:44.928Z,2.33
2023-01-01T12:18:24.801Z,2.00
2023-01-01T12:21:18.758Z,2.58
2023-01-01T12:23:53.351Z,1.90
2023-01-01T12:26:30.413Z,2.30
2023-01-01T12:29:20.230Z,1.92
2023-01-01T12:32:05.068Z,1.80
2023-01-01T12:34:43.269Z,2.00
2023-01-01T12:37:28.269Z,2.40
2023-01-01T12:40:32.189Z,2.17
2023-01-01T12:43:09.265Z,2.08
2023-01-01T12:46:18.845Z,2.20
2023-01-01T12:49:21.759Z,1.90
2023-01-01T12:52:06.596Z,2.00
2023-01-01T12:55:13.082Z,2.08
2023-01-01T12:57:52.526Z,2.33
2023-01-01T13:00:26.971Z,2.50
2023-01-01T13:03:07.715Z,2.10
2023-01-01T13:05:43.759Z,2.22
2023-01-01T13:08:16.656Z,2.60
2023-01-01T13:10:52.014Z,1.73
2023-01-01T13:13:27.324Z,2.00
2023-01-01T13:16:00.218Z,2.65
2023-01-01T13:18:35.526Z,2.17
2023-01-01T13:21:22.722Z,2.30
2023-01-01T13:23:59.121Z,2.35
2023-01-01T13:26:45.496Z,2.60
2023-01-01T13:29:47.179Z,2.20
2023-01-01T13:32:21.343Z,2.22
2023-01-01T13:35:04.102Z,2.50
2023-01-01T13:37:45.474Z,2.20
2023-01-01T13:40:50.205Z,1.67
2023-01-01T13:43:31.077Z,2.15
2023-01-01T13:46:14.711Z,2.60
2023-01-01T13:49:06.759Z,2.13
2023-01-01T13:52:06.999Z,2.17
2023-01-01T13:55:26.741Z,2.35
2023-01-01T13:58:25.432Z,2.30
2023-01-01T14:01:18.901Z,2.28
2023-01-01T14:03:56.142Z,2.08
2023-01-01T14:06:35.834Z,1.77
2023-01-01T14:09:13.839Z,1.77
2023-01-01T14:11:46.808Z,2.30
2023-01-01T14:14:25.009Z,2.10
2023-01-01T14:17:02.005Z,2.50
2023-01-01T14:19:36.089Z,2.47
2023-01-01T14:22:10.474Z,1.80
2023-01-01T14:24:46.824Z,2.08
2023-01-01T14:27:22.681Z,3.05
2023-01-01T14:29:55.759Z,2.50
2023-01-01T14:32:33.116Z,2.60
2023-01-01T14:35:17.210Z,2.15
2023-01-01T14:37:49.965Z,2.80
2023-01-01T14:40:29.223Z,2.08
2023-01-01T14:43:06.416Z,2.00
2023-01-01T14:45:44.421Z,1.27
2023-01-01T14:48:20.805Z,2.13
2023-01-01T14:50:54.368Z,2.17
2023-01-01T14:53:32.808Z,2.15
2023-01-01T14:56:07.021Z,2.67
2023-01-01T14:58:42.107Z,2.60
2023-01-01T15:01:16.416Z,1.60
2023-01-01T15:04:02.905Z,2.65
2023-01-01T15:06:41.690Z,2.40
2023-01-01T15:09:17.512Z,2.17
2023-01-01T15:11:52.954Z,2.80
2023-01-01T15:14:32.200Z,3.03
2023-01-01T15:17:07.529Z,2.50
2023-01-01T15:19:43.642Z,2.65
2023-01-01T15:22:23.015Z,2.78
2023-01-01T15:24:56.101Z,2.80
2023-01-01T15:27:33.083Z,2.67
2023-01-01T15:30:13.699Z,2.38
2023-01-01T15:32:46.931Z,3.00
2023-01-01T15:35:31.424Z,2.72
2023-01-01T15:38:12.373Z,3.92
2023-01-01T15:40:51.108Z,2.17
2023-01-01T15:43:29.551Z,2.55
2023-01-01T15:46:20.410Z,2.70
2023-01-01T15:48:54.103Z,3.25
2023-01-01T15:51:29.888Z,2.37
2023-01-01T15:54:05.652Z,2.05
2023-01-01T15:56:41.383Z,2.03
2023-01-01T15:59:25.848Z,2.20
2023-01-01T16:02:13.463Z,2.10
2023-01-01T16:04:49.106Z,3.00
2023-01-01T16:07:28.321Z,2.92
2023-01-01T16:10:01.517Z,2.20
2023-01-01T16:12:34.349Z,2.38
2023-01-01T16:15:08.377Z,2.65
2023-01-01T16:17:42.194Z,3.13
2023-01-01T16:20:15.988Z,2.53
2023-01-01T16:22:50.191Z,2.92
2023-01-01T16:25:23.977Z,2.50
2023-01-01T16:27:56.801Z,2.85
2023-01-01T16:46:50.950Z,2.13
2023-01-01T16:49:23.743Z,2.97
2023-01-01T16:51:56.531Z,2.47
2023-01-01T16:54:29.837Z,2.42
2023-01-01T16:57:02.695Z,2.67
2023-01-01T16:59:35.775Z,2.70
2023-01-01T17:02:12.159Z,2.67
2023-01-01T17:04:44.988Z,2.60
2023-01-01T17:07:17.814Z,2.85
2023-01-01T17:09:50.768Z,3.30
2023-01-01T17:12:23.849Z,4.05
2023-01-01T17:14:56.713Z,3.38
2023-01-01T17:17:30.956Z,7.20
2023-01-01T17:20:03.999Z,3.28
2023-01-01T17:22:37.985Z,2.90
2023-01-01T17:25:11.576Z,2.70
2023-01-01T17:27:45.337Z,2.25
2023-01-01T17:30:18.373Z,2.63
2023-01-01T17:32:52.525Z,2.47
2023-01-01T17:35:29.865Z,2.63
2023-01-01T17:38:05.890Z,2.83
2023-01-01T17:40:38.697Z,3.65
2023-01-01T17:43:12.454Z,3.95
2023-01-01T17:45:45.590Z,4.57
2023-01-01T17:48:19.882Z,4.65
2023-01-01T17:50:52.703Z,4.05
2023-01-01T17:56:48.917Z,2.70
2023-01-01T17:59:22.695Z,2.50
2023-01-01T18:01:56.225Z,4.10
2023-01-01T18:04:30.433Z,3.10
2023-01-01T18:07:06.347Z,3.85
2023-01-01T18:09:40.351Z,4.82
2023-01-01T18:12:13.163Z,3.45
2023-01-01T18:14:46.150Z,5.40
2023-01-01T18:17:33.419Z,7.50
2023-01-01T18:20:09.490Z,4.90
2023-01-01T18:22:43.374Z,8.30
2023-01-01T18:28:23.752Z,6.65
2023-01-01T18:30:56.641Z,5.22
2023-01-01T18:33:30.088Z,3.92
2023-01-01T18:36:09.930Z,5.30
2023-01-01T18:38:48.431Z,5.03
2023-01-01T18:41:46.243Z,5.25
2023-01-01T18:44:21.893Z,5.47
2023-01-01T18:46:59.261Z,6.75
2023-01-01T18:49:33.581Z,5.15
2023-01-01T18:52:17.691Z,4.82
2023-01-01T18:54:59.037Z,4.80
2023-01-01T18:57:32.458Z,4.45
2023-01-01T19:00:17.345Z,3.90
2023-01-01T19:02:58.341Z,4.93
2023-01-01T19:05:32.748Z,3.72
2023-01-01T19:08:15.642Z,4.45
2023-01-01T19:10:50.102Z,3.83
2023-01-01T19:13:24.842Z,3.53
2023-01-01T19:16:01.645Z,2.80
2023-01-01T19:18:35.699Z,2.78
2023-01-01T19:21:20.373Z,4.33
2023-01-01T19:23:56.615Z,5.82
2023-01-01T19:26:33.233Z,4.00
2023-01-01T19:29:15.408Z,4.68
2023-01-01T19:31:49.813Z,5.32
2023-01-01T19:34:23.693Z,4.15
2023-01-01T19:36:56.481Z,4.85
2023-01-01T19:39:31.579Z,6.43
2023-01-01T19:42:06.793Z,4.28
2023-01-01T19:44:39.944Z,3.55
2023-01-01T19:47:12.777Z,3.20
2023-01-01T19:49:49.335Z,4.90
2023-01-01T19:52:25.274Z,5.50
2023-01-01T19:54:59.439Z,4.60
2023-01-01T19:58:04.600Z,4.68
2023-01-01T20:00:37.911Z,4.03
2023-01-01T20:03:43.386Z,3.72
2023-01-01T20:06:03.641Z,3.65
2023-01-01T20:08:37.935Z,3.28
2023-01-01T20:11:12.199Z,4.22
2023-01-01T20:13:45.148Z,4.68
2023-01-01T20:16:18.006Z,3.88
2023-01-01T20:18:50.854Z,3.75
2023-01-01T20:21:41.123Z,3.60
2023-01-01T20:24:13.960Z,4.40
2023-01-01T20:29:23.104Z,4.43
2023-01-01T20:31:58.890Z,4.82
2023-01-01T20:34:31.856Z,4.72
2023-01-01T20:37:22.474Z,5.40
2023-01-01T20:39:55.430Z,4.78
2023-01-01T20:42:29.626Z,6.88
2023-01-01T20:45:02.595Z,8.18
2023-01-01T20:47:36.642Z,6.90
2023-01-01T20:50:10.294Z,7.38
2023-01-01T20:55:17.294Z,8.43
2023-01-01T20:57:51.563Z,7.40
2023-01-01T21:00:24.520Z,5.80
2023-01-01T21:02:57.350Z,4.32
2023-01-01T21:05:30.164Z,4.28
2023-01-01T21:08:03.009Z,5.00
2023-01-01T21:10:36.007Z,4.70
2023-01-01T21:13:10.435Z,3.67
2023-01-01T21:15:43.383Z,4.25
2023-01-01T21:18:16.263Z,4.40
2023-01-01T21:20:50.207Z,4.00
2023-01-01T21:23:27.123Z,4.47
2023-01-01T21:25:59.988Z,3.72
2023-01-01T21:28:34.846Z,4.75
2023-01-01T21:33:46.109Z,4.55
2023-01-01T21:36:21.460Z,3.85
2023-01-01T21:39:09.353Z,4.25
2023-01-01T21:41:42.206Z,3.83
2023-01-01T21:44:16.663Z,4.07
2023-01-01T21:46:56.875Z,4.50
2023-01-01T21:49:39.615Z,4.18
2023-01-01T21:52:18.791Z,4.53
2023-01-01T21:54:52.955Z,4.85
2023-01-01T21:57:26.490Z,4.50
2023-01-01T22:00:01.310Z,4.68
2023-01-01T22:05:31.087Z,4.65
2023-01-01T22:08:23.279Z,4.57
2023-01-01T22:10:58.406Z,3.88
2023-01-01T22:13:32.378Z,4.20
2023-01-01T22:16:12.806Z,4.78
2023-01-01T22:18:45.700Z,4.20
2023-01-01T22:21:19.003Z,5.00
2023-01-01T22:23:57.544Z,3.78
2023-01-01T22:26:32.221Z,4.97
2023-01-01T22:29:16.628Z,4.60
2023-01-01T22:31:57.395Z,4.78
2023-01-01T22:34:30.342Z,3.65
2023-01-01T22:37:03.129Z,4.32
2023-01-01T22:39:36.691Z,4.30
2023-01-01T22:42:13.522Z,4.35
2023-01-01T22:44:53.615Z,4.70
2023-01-01T22:47:34.031Z,4.32
2023-01-01T22:50:09.867Z,4.30
2023-01-01T22:52:42.675Z,4.32
2023-01-01T22:55:15.725Z,3.55
2023-01-01T22:57:49.232Z,3.85
2023-01-01T23:00:22.704Z,5.15
2023-01-01T23:02:57.003Z,4.43
2023-01-01T23:05:30.166Z,4.30
2023-01-01T23:08:03.027Z,4.72
2023-01-01T23:10:36.663Z,4.47
2023-01-01T23:13:26.791Z,4.40
2023-01-01T23:16:02.879Z,4.65
2023-01-01T23:18:38.154Z,4.43
2023-01-01T23:21:19.991Z,3.72
2023-01-01T23:23:57.004Z,3.83
2023-01-01T23:26:29.946Z,3.42
2023-01-01T23:29:04.107Z,4.00
2023-01-01T23:31:39.239Z,4.28
2023-01-01T23:34:13.987Z,4.20
2023-01-01T23:36:47.035Z,3.38
2023-01-01T23:39:20.235Z,3.45
2023-01-01T23:41:53.118Z,3.97
2023-01-01T23:44:25.969Z,3.60
2023-01-01T23:47:01.107Z,5.40
2023-01-01T23:49:35.966Z,3.22
2023-01-01T23:52:09.635Z,3.30
2023-01-01T23:54:42.465Z,4.28
2023-01-01T23:57:15.409Z,3.60
2023-01-01T23:59:48.203Z,4.07
